createdAt,value
2023-01-07T00:00:22.788Z,986.01
2023-01-07T00:00:54.588Z,986.01
2023-01-07T00:01:25.705Z,985.81
2023-01-07T00:01:58.416Z,985.81
2023-01-07T00:02:29.733Z,985.91
2023-01-07T00:03:02.806Z,985.91
2023-01-07T00:03:33.605Z,986.11
2023-01-07T00:04:06.843Z,985.91
2023-01-07T00:04:37.703Z,985.91
2023-01-07T00:05:10.789Z,985.81
2023-01-07T00:05:41.632Z,985.81
2023-01-07T00:06:14.459Z,985.91
2023-01-07T00:06:45.502Z,985.91
2023-01-07T00:07:18.761Z,985.71
2023-01-07T00:07:49.593Z,985.71
2023-01-07T00:08:22.226Z,986.01
2023-01-07T00:08:53.622Z,986.01
2023-01-07T00:09:26.598Z,985.91
2023-01-07T00:09:57.768Z,985.91
2023-01-07T00:10:30.857Z,985.91
2023-01-07T00:11:01.759Z,985.91
2023-01-07T00:11:34.605Z,986.01
2023-01-07T00:12:05.632Z,985.91
2023-01-07T00:12:38.660Z,985.91
2023-01-07T00:13:09.730Z,985.91
2023-01-07T00:13:42.838Z,985.91
2023-01-07T00:14:13.775Z,985.91
2023-01-07T00:14:46.506Z,985.91
2023-01-07T00:15:18.604Z,985.81
2023-01-07T00:15:50.725Z,985.81
2023-01-07T00:16:21.890Z,986.01
2023-01-07T00:16:54.613Z,986.01
2023-01-07T00:17:25.879Z,985.91
2023-01-07T00:17:58.783Z,985.91
2023-01-07T00:18:29.712Z,985.81
2023-01-07T00:19:02.550Z,985.81
2023-01-07T00:19:33.584Z,985.91
2023-01-07T00:20:06.843Z,986.01
2023-01-07T00:20:37.658Z,986.01
2023-01-07T00:21:10.531Z,985.81
2023-01-07T00:21:41.608Z,985.81
2023-01-07T00:22:14.584Z,985.81
2023-01-07T00:22:45.700Z,985.81
2023-01-07T00:23:18.389Z,986.01
2023-01-07T00:23:49.666Z,986.01
2023-01-07T00:24:22.481Z,985.81
2023-01-07T00:24:53.734Z,985.81
2023-01-07T00:25:26.820Z,985.91
2023-01-07T00:25:57.663Z,985.91
2023-01-07T00:26:30.507Z,985.71
2023-01-07T00:27:01.613Z,985.71
2023-01-07T00:27:34.424Z,985.71
2023-01-07T00:28:05.904Z,985.71
2023-01-07T00:28:38.433Z,985.71
2023-01-07T00:29:09.593Z,985.71
2023-01-07T00:29:42.676Z,985.71
2023-01-07T00:30:14.751Z,985.71
2023-01-07T00:30:46.648Z,985.71
2023-01-07T00:31:17.636Z,985.81
2023-01-07T00:31:50.625Z,985.81
2023-01-07T00:32:21.555Z,985.71
2023-01-07T00:32:54.701Z,985.71
2023-01-07T00:33:25.702Z,985.71
2023-01-07T00:33:58.644Z,985.71
2023-01-07T00:34:29.631Z,985.71
2023-01-07T00:35:02.974Z,985.71
2023-01-07T00:35:33.694Z,985.91
2023-01-07T00:36:06.537Z,985.64
2023-01-07T00:36:37.605Z,985.64
2023-01-07T00:37:10.602Z,986.01
2023-01-07T00:37:41.510Z,986.01
2023-01-07T00:38:14.498Z,985.91
2023-01-07T00:38:45.753Z,985.91
2023-01-07T00:39:18.510Z,986.01
2023-01-07T00:39:49.608Z,986.01
2023-01-07T00:40:22.884Z,985.81
2023-01-07T00:40:53.652Z,985.81
2023-01-07T00:41:26.579Z,985.64
2023-01-07T00:41:57.749Z,985.64
2023-01-07T00:42:30.804Z,985.81
2023-01-07T00:43:01.804Z,985.81
2023-01-07T00:43:34.508Z,985.71
2023-01-07T00:44:05.737Z,985.81
2023-01-07T00:44:38.766Z,985.81
2023-01-07T00:45:10.552Z,985.81
2023-01-07T00:45:42.597Z,985.81
2023-01-07T00:46:13.799Z,985.81
2023-01-07T00:46:46.757Z,985.81
2023-01-07T00:47:17.641Z,985.81
2023-01-07T00:47:50.482Z,985.81
2023-01-07T00:48:21.677Z,985.91
2023-01-07T00:48:54.646Z,985.91
2023-01-07T00:49:25.616Z,985.81
2023-01-07T00:49:58.521Z,985.81
2023-01-07T00:50:30.086Z,985.71
2023-01-07T00:51:02.435Z,985.71
2023-01-07T00:51:33.741Z,985.64
2023-01-07T00:52:06.913Z,985.81
2023-01-07T01:13:57.640Z,985.71
2023-01-07T01:14:30.521Z,985.71
2023-01-07T01:15:03.247Z,985.71
2023-01-07T01:15:34.592Z,985.71
2023-01-07T01:16:05.725Z,985.71
2023-01-07T01:16:38.649Z,985.71
2023-01-07T01:17:09.783Z,985.81
2023-01-07T01:17:42.701Z,985.81
2023-01-07T01:18:13.738Z,985.64
2023-01-07T01:18:46.577Z,985.64
2023-01-07T01:19:17.705Z,985.81
2023-01-07T01:19:50.564Z,985.81
2023-01-07T01:20:22.071Z,985.71
2023-01-07T01:20:54.687Z,985.71
2023-01-07T01:21:25.705Z,985.71
2023-01-07T01:21:58.504Z,985.71
2023-01-07T01:22:29.684Z,985.64
2023-01-07T01:23:02.348Z,985.64
2023-01-07T01:23:33.797Z,985.81
2023-01-07T01:24:06.591Z,985.71
2023-01-07T01:24:37.732Z,985.71
2023-01-07T01:25:10.914Z,985.71
2023-01-07T01:25:41.586Z,985.71
2023-01-07T01:26:14.609Z,985.64
2023-01-07T01:26:45.610Z,985.64
2023-01-07T01:27:18.745Z,985.71
2023-01-07T01:27:49.696Z,985.71
2023-01-07T01:28:22.560Z,985.64
2023-01-07T01:28:53.614Z,985.64
2023-01-07T01:29:26.420Z,985.44
2023-01-07T01:29:57.775Z,985.44
2023-01-07T01:30:32.589Z,985.64
2023-01-07T01:31:01.763Z,985.64
2023-01-07T01:31:34.821Z,985.81
2023-01-07T01:32:05.820Z,985.71
2023-01-07T01:32:38.553Z,985.71
2023-01-07T01:33:09.703Z,985.71
2023-01-07T01:33:42.633Z,985.71
2023-01-07T01:34:13.589Z,985.64
2023-01-07T01:34:46.489Z,985.64
2023-01-07T01:35:18.027Z,985.64
2023-01-07T01:35:50.532Z,985.64
2023-01-07T01:36:21.645Z,985.91
2023-01-07T01:36:54.706Z,985.91
2023-01-07T01:37:26.049Z,985.71
2023-01-07T01:37:58.269Z,985.71
2023-01-07T01:38:29.658Z,985.71
2023-01-07T01:39:02.558Z,985.71
2023-01-07T01:39:33.772Z,985.64
2023-01-07T01:40:06.614Z,985.71
2023-01-07T01:40:37.671Z,985.71
2023-01-07T01:41:10.571Z,985.71
2023-01-07T01:41:41.674Z,985.71
2023-01-07T01:42:14.688Z,985.64
2023-01-07T01:42:45.704Z,985.64
2023-01-07T01:43:18.534Z,985.71
2023-01-07T01:43:49.602Z,985.71
2023-01-07T01:44:22.432Z,985.81
2023-01-07T01:44:53.716Z,985.81
2023-01-07T01:45:27.822Z,985.81
2023-01-07T01:45:57.772Z,985.81
2023-01-07T01:46:30.519Z,985.64
2023-01-07T01:47:01.600Z,985.64
2023-01-07T01:47:34.560Z,985.64
2023-01-07T01:48:05.654Z,985.64
2023-01-07T01:48:38.664Z,985.64
2023-01-07T01:49:09.650Z,985.71
2023-01-07T01:49:42.444Z,985.71
2023-01-07T01:50:14.070Z,985.64
2023-01-07T01:50:46.294Z,985.64
2023-01-07T01:51:17.696Z,985.54
2023-01-07T01:51:50.523Z,985.54
2023-01-07T01:52:21.807Z,985.64
2023-01-07T01:52:54.447Z,985.64
2023-01-07T01:53:25.670Z,985.64
2023-01-07T01:53:58.424Z,985.64
2023-01-07T01:54:29.797Z,985.71
2023-01-07T01:55:02.793Z,985.71
2023-01-07T01:55:33.787Z,985.34
2023-01-07T01:56:06.372Z,985.71
2023-01-07T01:56:37.660Z,985.71
2023-01-07T01:56:53.872Z,985.71
2023-01-07T01:57:25.597Z,985.44
2023-01-07T01:57:57.894Z,985.44
2023-01-07T01:58:29.789Z,985.54
2023-01-07T01:59:01.558Z,985.54
2023-01-07T01:59:34.275Z,985.54
2023-01-07T02:00:07.100Z,985.54
2023-01-07T02:00:38.683Z,985.54
2023-01-07T02:01:09.827Z,985.54
2023-01-07T02:01:42.585Z,985.54
2023-01-07T02:02:13.884Z,985.71
2023-01-07T02:02:46.709Z,985.71
2023-01-07T02:03:17.713Z,985.71
2023-01-07T02:03:50.526Z,985.71
2023-01-07T02:04:21.741Z,985.34
2023-01-07T02:04:54.517Z,985.34
2023-01-07T02:05:25.980Z,985.64
2023-01-07T02:05:58.395Z,985.64
2023-01-07T02:06:29.650Z,985.54
2023-01-07T02:07:02.394Z,985.54
2023-01-07T02:07:33.715Z,985.64
2023-01-07T02:08:06.375Z,985.54
2023-01-07T02:08:37.716Z,985.54
2023-01-07T02:09:10.513Z,985.44
2023-01-07T02:09:41.823Z,985.44
2023-01-07T02:10:14.737Z,985.54
2023-01-07T02:10:45.735Z,985.54
2023-01-07T02:11:18.551Z,985.44
2023-01-07T02:11:49.688Z,985.44
2023-01-07T02:12:22.545Z,985.34
2023-01-07T02:12:53.783Z,985.34
2023-01-07T02:13:26.394Z,985.54
2023-01-07T07:11:33.714Z,983.13
2023-01-07T07:12:05.715Z,983.24
2023-01-07T07:12:37.853Z,983.24
2023-01-07T07:13:09.875Z,982.93
2023-01-07T07:13:41.763Z,982.93
2023-01-07T07:14:13.892Z,983.24
2023-01-07T07:14:45.809Z,983.24
2023-01-07T07:15:18.670Z,983.03
2023-01-07T07:15:50.750Z,983.03
2023-01-07T07:16:21.842Z,983.03
2023-01-07T07:16:54.755Z,983.03
2023-01-07T07:17:25.741Z,983.34
2023-01-07T07:17:58.578Z,983.34
2023-01-07T07:18:29.945Z,983.03
2023-01-07T07:19:02.593Z,983.03
2023-01-07T07:19:33.792Z,983.24
2023-01-07T07:20:06.930Z,983.03
2023-01-07T07:20:37.672Z,983.03
2023-01-07T07:21:10.481Z,982.93
2023-01-07T07:21:41.883Z,982.93
2023-01-07T07:22:14.690Z,982.83
2023-01-07T07:22:45.788Z,982.83
2023-01-07T07:23:18.623Z,982.93
2023-01-07T07:23:49.939Z,982.93
2023-01-07T07:24:22.645Z,983.03
2023-01-07T07:24:53.871Z,983.03
2023-01-07T07:25:27.096Z,982.93
2023-01-07T07:25:57.945Z,982.93
2023-01-07T07:26:30.791Z,983.03
2023-01-07T07:27:01.819Z,983.03
2023-01-07T07:27:34.742Z,982.93
2023-01-07T07:28:05.952Z,983.03
2023-01-07T07:28:38.584Z,983.03
2023-01-07T07:29:09.728Z,983.03
2023-01-07T07:29:42.823Z,983.03
2023-01-07T07:30:14.656Z,982.93
2023-01-07T07:30:48.002Z,982.93
2023-01-07T07:31:17.906Z,983.24
2023-01-07T07:31:50.597Z,983.24
2023-01-07T07:32:21.828Z,982.83
2023-01-07T07:32:54.802Z,982.83
2023-01-07T07:33:26.097Z,983.03
2023-01-07T07:33:58.736Z,983.03
2023-01-07T07:34:30.128Z,983.03
2023-01-07T07:35:03.083Z,983.03
2023-01-07T07:35:33.717Z,982.93
2023-01-07T07:36:06.851Z,982.83
2023-01-07T07:36:38.063Z,982.83
2023-01-07T07:37:11.832Z,982.93
2023-01-07T07:37:42.001Z,982.93
2023-01-07T07:38:14.855Z,983.03
2023-01-07T07:38:46.048Z,983.03
2023-01-07T07:39:18.750Z,983.03
2023-01-07T07:39:49.929Z,983.03
2023-01-07T07:40:23.000Z,982.83
2023-01-07T07:40:53.971Z,982.83
2023-01-07T07:41:26.646Z,982.73
2023-01-07T07:41:58.021Z,982.73
2023-01-07T07:42:30.877Z,982.83
2023-01-07T07:43:10.462Z,982.83
2023-01-07T07:43:34.829Z,982.83
2023-01-07T07:44:06.069Z,983.03
2023-01-07T07:44:38.880Z,983.03
2023-01-07T07:45:10.990Z,982.93
2023-01-07T07:45:42.964Z,982.93
2023-01-07T07:46:14.189Z,982.93
2023-01-07T07:46:46.755Z,982.93
2023-01-07T07:47:18.040Z,982.93
2023-01-07T07:47:51.062Z,982.93
2023-01-07T07:48:22.091Z,982.93
2023-01-07T07:48:54.833Z,982.93
2023-01-07T07:49:26.017Z,982.83
2023-01-07T07:49:58.877Z,982.83
2023-01-07T07:50:30.336Z,982.83
2023-01-07T07:51:02.748Z,982.83
2023-01-07T07:51:34.113Z,982.83
2023-01-07T07:52:06.816Z,982.73
2023-01-07T07:52:37.925Z,982.73
2023-01-07T07:53:11.594Z,982.73
2023-01-07T07:53:42.120Z,982.73
2023-01-07T07:54:14.707Z,982.73
2023-01-07T07:54:46.030Z,982.73
2023-01-07T07:55:20.437Z,982.93
2023-01-07T07:55:49.959Z,982.93
2023-01-07T07:56:22.780Z,982.83
2023-01-07T07:56:54.024Z,982.83
2023-01-07T07:57:27.122Z,982.73
2023-01-07T07:57:58.567Z,982.73
2023-01-07T07:58:30.866Z,982.63
2023-01-07T07:59:02.135Z,982.63
2023-01-07T07:59:35.116Z,982.83
2023-01-07T08:00:07.461Z,982.83
2023-01-07T08:00:38.867Z,982.83
2023-01-07T08:01:10.284Z,982.63
2023-01-07T08:01:42.929Z,982.63
2023-01-07T08:02:14.085Z,982.73
2023-01-07T08:02:46.913Z,982.73
2023-01-07T08:03:18.274Z,982.63
2023-01-07T08:03:50.818Z,982.63
2023-01-07T08:04:22.111Z,982.73
2023-01-07T08:04:55.171Z,982.73
2023-01-07T08:05:26.479Z,982.63
2023-01-07T08:05:59.059Z,982.63
2023-01-07T08:06:30.267Z,982.53
2023-01-07T08:07:02.767Z,982.53
2023-01-07T08:07:35.758Z,982.73
2023-01-07T08:08:07.193Z,982.83
2023-01-07T08:08:38.225Z,982.83
2023-01-07T08:09:10.964Z,982.73
2023-01-07T08:09:42.102Z,982.73
2023-01-07T08:10:15.666Z,982.73
2023-01-07T08:10:45.908Z,982.73
2023-01-07T08:11:18.958Z,982.63
2023-01-07T08:11:50.102Z,982.63
2023-01-07T08:12:24.383Z,982.73
2023-01-07T08:12:54.054Z,982.73
2023-01-07T08:13:26.939Z,982.63
2023-01-07T08:13:58.050Z,982.63
2023-01-07T08:14:30.921Z,982.63
2023-01-07T08:15:03.543Z,982.63
2023-01-07T08:15:35.114Z,982.53
2023-01-07T08:16:06.225Z,982.73
2023-01-07T08:16:38.914Z,982.73
2023-01-07T08:17:10.193Z,982.53
2023-01-07T08:17:43.159Z,982.53
2023-01-07T08:18:14.022Z,982.53
2023-01-07T08:18:46.765Z,982.53
2023-01-07T08:19:18.054Z,982.42
2023-01-07T08:19:50.834Z,982.42
2023-01-07T08:20:22.347Z,982.53
2023-01-07T08:20:55.208Z,982.53
2023-01-07T08:21:26.217Z,982.42
2023-01-07T08:21:59.266Z,982.42
2023-01-07T08:22:30.124Z,982.63
2023-01-07T08:23:02.890Z,982.63
2023-01-07T08:23:33.895Z,982.63
2023-01-07T08:24:06.936Z,982.63
2023-01-07T08:24:38.073Z,982.63
2023-01-07T08:25:12.060Z,982.42
2023-01-07T08:25:41.923Z,982.42
2023-01-07T08:26:14.910Z,982.53
2023-01-07T08:26:46.056Z,982.53
2023-01-07T08:27:18.810Z,982.22
2023-01-07T08:27:49.989Z,982.22
2023-01-07T08:28:22.812Z,982.73
2023-01-07T08:28:54.085Z,982.73
2023-01-07T08:29:26.954Z,982.42
2023-01-07T08:29:57.973Z,982.42
2023-01-07T08:30:32.526Z,982.42
2023-01-07T08:31:01.979Z,982.42
2023-01-07T08:31:34.820Z,982.32
2023-01-07T08:32:06.052Z,982.22
2023-01-07T08:32:39.284Z,982.22
2023-01-07T08:33:09.960Z,982.42
2023-01-07T08:33:42.929Z,982.42
2023-01-07T08:34:14.088Z,982.32
2023-01-07T08:34:46.779Z,982.32
2023-01-07T08:35:18.377Z,982.22
2023-01-07T08:35:50.790Z,982.22
2023-01-07T08:36:23.397Z,982.22
2023-01-07T08:36:54.931Z,982.22
2023-01-07T08:37:26.120Z,982.22
2023-01-07T08:37:59.108Z,982.22
2023-01-07T08:38:29.995Z,982.32
2023-01-07T08:39:02.836Z,982.32
2023-01-07T08:39:34.082Z,982.42
2023-01-07T08:40:07.372Z,982.63
2023-01-07T08:40:37.850Z,982.63
2023-01-07T08:41:10.899Z,982.42
2023-01-07T08:41:42.121Z,982.42
2023-01-07T08:42:15.031Z,982.42
2023-01-07T08:42:46.035Z,982.42
2023-01-07T08:43:18.923Z,982.32
2023-01-07T08:43:50.172Z,982.32
2023-01-07T08:44:22.903Z,982.32
2023-01-07T08:44:54.086Z,982.32
2023-01-07T08:45:28.234Z,982.22
2023-01-07T08:45:57.982Z,982.22
2023-01-07T08:46:30.999Z,982.12
2023-01-07T08:47:02.151Z,982.12
2023-01-07T08:47:34.827Z,982.12
2023-01-07T08:48:05.990Z,982.32
2023-01-07T08:48:38.934Z,982.32
2023-01-07T08:49:10.096Z,982.42
2023-01-07T08:49:42.862Z,982.42
2023-01-07T08:50:14.412Z,982.02
2023-01-07T08:50:46.873Z,982.02
2023-01-07T08:51:17.925Z,982.22
2023-01-07T08:51:50.848Z,982.22
2023-01-07T08:52:22.041Z,982.22
2023-01-07T08:52:55.040Z,982.22
2023-01-07T08:53:26.004Z,982.12
2023-01-07T08:53:58.906Z,982.12
2023-01-07T08:54:30.066Z,982.32
2023-01-07T08:55:03.340Z,982.32
2023-01-07T08:55:34.003Z,982.32
2023-01-07T08:56:07.037Z,982.22
2023-01-07T08:56:38.121Z,982.22
2023-01-07T08:57:10.926Z,982.32
2023-01-07T08:57:42.063Z,982.32
2023-01-07T08:58:14.895Z,982.12
2023-01-07T08:58:46.058Z,982.12
2023-01-07T08:59:18.883Z,982.12
2023-01-07T08:59:50.068Z,982.12
2023-01-07T09:00:24.466Z,982.12
2023-01-07T09:00:54.203Z,982.12
2023-01-07T09:01:26.964Z,982.32
2023-01-07T09:01:58.223Z,982.32
2023-01-07T09:02:31.015Z,982.32
2023-01-07T09:03:01.992Z,982.32
2023-01-07T09:03:34.946Z,982.42
2023-01-07T09:04:06.118Z,982.22
2023-01-07T09:04:38.804Z,982.22
2023-01-07T09:05:10.304Z,982.22
2023-01-07T09:05:42.901Z,982.22
2023-01-07T09:06:13.910Z,982.22
2023-01-07T09:06:46.718Z,982.22
2023-01-07T09:07:18.037Z,982.02
2023-01-07T09:07:51.057Z,982.02
2023-01-07T09:08:21.923Z,982.32
2023-01-07T09:08:55.146Z,982.32
2023-01-07T09:09:26.102Z,982.12
2023-01-07T09:09:58.783Z,982.12
2023-01-07T09:10:30.430Z,982.22
2023-01-07T09:11:02.815Z,982.22
2023-01-07T09:11:34.129Z,982.32
2023-01-07T09:12:08.334Z,982.02
2023-01-07T09:12:38.135Z,982.02
2023-01-07T09:13:10.871Z,982.12
2023-01-07T09:13:41.907Z,982.12
2023-01-07T09:14:14.905Z,982.02
2023-01-07T09:14:46.089Z,982.02
2023-01-07T09:15:19.807Z,982.12
2023-01-07T09:15:50.263Z,982.12
2023-01-07T09:16:22.830Z,982.22
2023-01-07T09:16:54.100Z,982.22
2023-01-07T09:17:26.902Z,982.22
2023-01-07T09:17:57.934Z,982.22
2023-01-07T09:18:31.199Z,982.02
2023-01-07T09:19:02.220Z,982.02
2023-01-07T09:19:35.038Z,982.22
2023-01-07T09:20:06.372Z,982.22
2023-01-07T09:20:38.751Z,982.22
2023-01-07T09:21:09.957Z,982.02
2023-01-07T09:21:26.182Z,982.02
2023-01-07T09:21:58.011Z,982.02
2023-01-07T09:22:30.146Z,982.32
2023-01-07T09:23:02.125Z,982.32
2023-01-07T09:23:33.999Z,982.02
2023-01-07T09:24:07.033Z,982.02
2023-01-07T09:24:38.053Z,982.02
2023-01-07T09:25:11.350Z,982.22
2023-01-07T09:25:42.024Z,982.22
2023-01-07T09:26:14.902Z,982.12
2023-01-07T09:26:46.058Z,982.12
2023-01-07T09:27:18.821Z,982.12
2023-01-07T09:27:49.983Z,982.12
2023-01-07T09:28:22.702Z,982.22
2023-01-07T09:28:54.110Z,982.22
2023-01-07T09:29:26.789Z,982.32
2023-01-07T09:29:58.068Z,982.32
2023-01-07T09:30:32.332Z,982.02
2023-01-07T09:31:02.080Z,982.02
2023-01-07T09:31:34.989Z,982.02
2023-01-07T09:32:06.093Z,982.12
2023-01-07T09:32:38.966Z,982.12
2023-01-07T09:33:09.941Z,982.12
2023-01-07T09:33:42.792Z,982.12
2023-01-07T09:34:14.059Z,982.22
2023-01-07T09:34:46.753Z,982.22
2023-01-07T09:35:18.466Z,982.12
2023-01-07T09:35:50.911Z,982.12
2023-01-07T09:36:21.985Z,982.12
2023-01-07T09:36:55.147Z,982.12
2023-01-07T09:37:26.149Z,982.12
2023-01-07T09:37:59.197Z,982.12
2023-01-07T09:38:30.011Z,982.22
2023-01-07T09:39:02.831Z,982.22
2023-01-07T09:39:34.177Z,982.22
2023-01-07T09:40:07.031Z,982.22
2023-01-07T09:40:38.024Z,982.22
2023-01-07T09:41:10.919Z,982.12
2023-01-07T09:41:42.256Z,982.12
2023-01-07T09:42:14.960Z,982.12
2023-01-07T09:42:46.082Z,982.12
2023-01-07T09:43:19.035Z,982.42
2023-01-07T09:44:01.051Z,982.42
2023-01-07T09:44:22.808Z,982.02
2023-01-07T09:44:54.073Z,982.02
2023-01-07T09:45:28.004Z,982.22
2023-01-07T09:45:58.149Z,982.22
2023-01-07T09:46:31.178Z,982.12
2023-01-07T09:47:02.193Z,982.12
2023-01-07T09:47:34.887Z,981.92
2023-01-07T09:48:06.019Z,982.02
2023-01-07T09:48:38.829Z,982.02
2023-01-07T09:49:10.028Z,982.32
2023-01-07T09:49:26.086Z,982.32
2023-01-07T09:49:58.223Z,982.32
2023-01-07T09:50:30.465Z,982.12
2023-01-07T09:51:02.943Z,982.12
2023-01-07T09:51:34.193Z,982.32
2023-01-07T09:52:06.930Z,982.22
2023-01-07T09:52:38.082Z,982.22
2023-01-07T09:53:11.031Z,982.02
2023-01-07T09:53:41.914Z,982.02
2023-01-07T09:54:14.905Z,982.22
2023-01-07T09:54:46.131Z,982.22
2023-01-07T09:55:19.398Z,981.92
2023-01-07T09:56:10.806Z,981.92
2023-01-07T09:56:22.877Z,982.42
2023-01-07T09:56:54.115Z,982.42
2023-01-07T09:57:26.917Z,982.02
2023-01-07T09:57:58.249Z,982.02
2023-01-07T09:58:31.123Z,982.32
2023-01-07T09:59:02.384Z,982.32
2023-01-07T09:59:34.804Z,982.02
2023-01-07T10:00:07.543Z,981.92
2023-01-07T10:00:39.293Z,981.92
2023-01-07T10:01:10.098Z,981.92
2023-01-07T10:01:42.928Z,981.92
2023-01-07T10:02:14.272Z,982.12
2023-01-07T10:02:47.081Z,982.12
2023-01-07T10:03:18.036Z,981.92
2023-01-07T10:03:50.987Z,981.92
2023-01-07T10:04:22.073Z,982.02
2023-01-07T10:04:54.734Z,982.02
2023-01-07T10:05:26.422Z,982.02
2023-01-07T10:05:59.077Z,982.02
2023-01-07T10:06:42.671Z,981.92
2023-01-07T10:07:02.934Z,981.92
2023-01-07T10:07:34.070Z,982.22
2023-01-07T10:08:29.487Z,982.02
2023-01-07T10:08:38.180Z,982.02
2023-01-07T10:09:10.965Z,982.02
2023-01-07T10:09:42.243Z,982.02
2023-01-07T10:10:15.174Z,981.92
2023-01-07T10:10:46.116Z,981.92
2023-01-07T10:11:18.913Z,981.81
2023-01-07T10:11:50.210Z,981.81
2023-01-07T10:12:23.094Z,982.12
2023-01-07T10:12:54.217Z,982.12
2023-01-07T10:13:27.020Z,981.92
2023-01-07T10:13:58.281Z,981.92
2023-01-07T10:14:31.050Z,981.71
2023-01-07T10:15:03.681Z,981.71
2023-01-07T10:15:35.389Z,981.71
2023-01-07T10:16:06.084Z,981.71
2023-01-07T10:16:39.050Z,981.71
2023-01-07T10:17:10.205Z,981.71
2023-01-07T10:17:43.155Z,981.71
2023-01-07T10:18:14.067Z,981.71
2023-01-07T10:18:47.034Z,981.71
2023-01-07T10:19:18.219Z,981.71
2023-01-07T10:19:50.948Z,981.71
2023-01-07T10:20:22.369Z,981.71
2023-01-07T10:20:55.124Z,981.71
2023-01-07T10:21:25.892Z,981.71
2023-01-07T10:21:58.824Z,981.71
2023-01-07T10:22:30.104Z,981.71
2023-01-07T10:23:03.014Z,981.71
2023-01-07T10:23:33.979Z,981.51
2023-01-07T10:24:06.893Z,981.71
2023-01-07T10:24:38.094Z,981.71
2023-01-07T10:25:11.103Z,981.81
2023-01-07T10:25:42.044Z,981.81
2023-01-07T10:26:15.027Z,981.61
2023-01-07T10:26:46.145Z,981.61
2023-01-07T10:27:19.106Z,981.51
2023-01-07T10:27:50.086Z,981.51
2023-01-07T10:28:22.947Z,981.61
2023-01-07T10:28:53.926Z,981.61
2023-01-07T10:29:26.960Z,981.61
2023-01-07T10:29:58.143Z,981.61
2023-01-07T10:30:32.093Z,981.61
2023-01-07T10:31:02.088Z,981.61
2023-01-07T10:31:34.943Z,981.81
2023-01-07T10:32:06.257Z,981.61
2023-01-07T10:32:39.087Z,981.61
2023-01-07T10:33:10.011Z,981.81
2023-01-07T10:33:42.967Z,981.81
2023-01-07T10:34:14.162Z,981.51
2023-01-07T10:34:46.883Z,981.51
2023-01-07T10:35:18.550Z,981.51
2023-01-07T10:35:51.129Z,981.51
2023-01-07T10:36:22.121Z,981.41
2023-01-07T10:36:55.103Z,981.41
2023-01-07T10:37:26.201Z,981.34
2023-01-07T10:37:58.937Z,981.34
2023-01-07T10:38:30.251Z,981.24
2023-01-07T10:39:03.181Z,981.24
2023-01-07T10:39:34.006Z,981.34
2023-01-07T10:40:07.463Z,981.51
2023-01-07T10:40:38.135Z,981.51
2023-01-07T10:41:10.870Z,981.34
2023-01-07T10:41:42.076Z,981.34
2023-01-07T10:42:15.077Z,981.34
2023-01-07T10:42:46.153Z,981.34
2023-01-07T10:43:18.790Z,981.41
2023-01-07T10:43:50.034Z,981.41
2023-01-07T10:44:23.248Z,981.51
2023-01-07T10:44:54.147Z,981.51
2023-01-07T10:45:28.222Z,981.34
2023-01-07T10:45:58.241Z,981.34
2023-01-07T10:46:30.974Z,981.34
2023-01-07T10:47:02.079Z,981.34
2023-01-07T10:47:35.080Z,981.41
2023-01-07T10:48:06.069Z,981.34
2023-01-07T10:48:38.622Z,981.34
2023-01-07T10:49:10.072Z,981.24
2023-01-07T10:49:42.924Z,981.24
2023-01-07T10:50:14.465Z,981.41
2023-01-07T10:50:46.816Z,981.41
2023-01-07T10:51:18.120Z,981.24
2023-01-07T10:51:50.998Z,981.24
2023-01-07T10:52:21.967Z,981.24
2023-01-07T10:52:55.184Z,981.24
2023-01-07T10:53:26.122Z,981.34
2023-01-07T10:53:58.987Z,981.34
2023-01-07T10:54:30.087Z,981.14
2023-01-07T10:55:03.307Z,981.14
2023-01-07T10:55:34.131Z,981.34
2023-01-07T10:56:06.915Z,981.14
2023-01-07T10:56:38.135Z,981.14
2023-01-07T10:57:11.036Z,981.34
2023-01-07T10:57:42.122Z,981.34
2023-01-07T10:58:14.927Z,981.14
2023-01-07T10:58:46.109Z,981.14
2023-01-07T10:59:19.002Z,981.34
2023-01-07T10:59:50.100Z,981.34
2023-01-07T11:00:24.374Z,981.24
2023-01-07T11:00:54.460Z,981.24
2023-01-07T11:01:26.951Z,981.24
2023-01-07T11:01:58.227Z,981.24
2023-01-07T11:02:31.108Z,981.14
2023-01-07T11:03:02.387Z,981.14
2023-01-07T11:03:35.083Z,980.83
2023-01-07T11:04:06.377Z,981.04
2023-01-07T11:04:39.381Z,981.04
2023-01-07T11:05:10.674Z,981.34
2023-01-07T11:05:43.278Z,981.34
2023-01-07T11:06:14.226Z,981.14
2023-01-07T11:06:47.312Z,981.14
2023-01-07T11:07:18.113Z,981.14
2023-01-07T11:07:51.046Z,981.14
2023-01-07T11:08:21.962Z,981.24
2023-01-07T11:08:54.900Z,981.24
2023-01-07T11:09:26.185Z,981.14
2023-01-07T11:09:58.933Z,981.14
2023-01-07T11:10:30.560Z,980.73
2023-01-07T11:11:03.098Z,980.73
2023-01-07T11:11:34.160Z,980.73
2023-01-07T11:12:07.088Z,980.83
2023-01-07T11:12:38.141Z,980.83
2023-01-07T11:13:10.964Z,980.83
2023-01-07T11:13:42.277Z,980.83
2023-01-07T11:14:14.959Z,980.83
2023-01-07T11:14:46.164Z,980.83
2023-01-07T11:15:20.139Z,981.04
2023-01-07T11:15:50.165Z,981.04
2023-01-07T11:16:22.843Z,980.83
2023-01-07T11:16:54.270Z,980.83
2023-01-07T11:17:26.907Z,980.83
2023-01-07T11:17:58.070Z,980.83
2023-01-07T11:18:31.111Z,980.93
2023-01-07T11:19:02.165Z,980.93
2023-01-07T11:19:34.967Z,980.83
2023-01-07T11:20:06.346Z,980.93
2023-01-07T11:20:39.015Z,980.93
2023-01-07T11:21:42.685Z,980.93
2023-01-07T11:21:43.456Z,980.93
2023-01-07T11:21:58.210Z,980.93
2023-01-07T11:22:30.089Z,980.93
2023-01-07T11:23:03.047Z,980.93
2023-01-07T11:23:34.149Z,980.93
2023-01-07T11:24:06.891Z,980.93
2023-01-07T11:24:38.142Z,980.93
2023-01-07T11:25:12.252Z,980.73
2023-01-07T11:25:41.984Z,980.73
2023-01-07T11:26:14.855Z,980.73
2023-01-07T11:26:46.104Z,980.73
2023-01-07T11:27:19.070Z,980.83
2023-01-07T11:27:50.052Z,980.83
2023-01-07T11:28:23.023Z,980.83
2023-01-07T11:28:54.134Z,980.83
2023-01-07T11:29:26.957Z,980.63
2023-01-07T11:29:57.969Z,980.63
2023-01-07T11:30:32.081Z,980.73
2023-01-07T11:31:02.201Z,980.73
2023-01-07T11:31:35.171Z,980.83
2023-01-07T11:32:06.065Z,980.93
2023-01-07T11:32:38.967Z,980.93
2023-01-07T11:33:10.029Z,980.83
2023-01-07T11:34:01.350Z,980.83
2023-01-07T11:34:14.156Z,980.83
2023-01-07T11:34:46.955Z,980.83
2023-01-07T11:35:18.324Z,980.73
2023-01-07T11:35:51.002Z,980.73
2023-01-07T11:36:22.141Z,980.83
2023-01-07T11:36:54.932Z,980.83
2023-01-07T11:37:26.112Z,980.63
2023-01-07T11:37:58.786Z,980.63
2023-01-07T11:38:30.434Z,980.83
2023-01-07T11:39:03.135Z,980.83
2023-01-07T11:39:34.104Z,980.53
2023-01-07T11:40:07.208Z,980.43
2023-01-07T11:40:38.039Z,980.43
2023-01-07T11:41:10.895Z,980.73
2023-01-07T11:41:42.130Z,980.73
2023-01-07T11:42:15.377Z,980.63
2023-01-07T11:42:46.021Z,980.63
2023-01-07T11:43:18.919Z,980.63
2023-01-07T11:43:50.081Z,980.63
2023-01-07T11:44:22.993Z,980.53
2023-01-07T11:44:54.111Z,980.53
2023-01-07T11:45:28.233Z,980.63
2023-01-07T11:46:19.481Z,980.63
2023-01-07T11:46:30.935Z,980.53
2023-01-07T11:47:02.301Z,980.53
2023-01-07T11:47:35.111Z,980.53
2023-01-07T11:48:06.019Z,980.63
2023-01-07T11:48:38.898Z,980.63
2023-01-07T11:49:10.180Z,980.63
2023-01-07T11:49:42.881Z,980.63
2023-01-07T11:50:14.395Z,980.32
2023-01-07T11:50:47.146Z,980.32
2023-01-07T11:51:18.326Z,980.53
2023-01-07T11:51:50.976Z,980.53
2023-01-07T11:52:22.144Z,980.43
2023-01-07T11:52:54.919Z,980.43
2023-01-07T11:53:26.314Z,980.32
2023-01-07T11:53:59.085Z,980.32
2023-01-07T11:54:30.230Z,980.43
2023-01-07T11:55:03.309Z,980.43
2023-01-07T11:55:34.113Z,980.32
2023-01-07T11:56:06.909Z,980.22
2023-01-07T11:56:38.146Z,980.22
2023-01-07T11:57:11.156Z,980.43